Observation data for O'Donnell on 07/18/2019      Previous  Date  Next       Current Mesonet Observations  Soil Data  Daily Summary Page  Observations in Plain Language
KOES 180500Z 18006KT 26/15 A2999 RMK A01 T02580146  RH  052%=      5-min Rain = 0
KOES 180505Z 17007KT 26/15 A2998 RMK A01 T02580147  RH  053%=      5-min Rain = 0
KOES 180510Z 17007KT 26/15 A2999 RMK A01 T02580148  RH  053%=      5-min Rain = 0
KOES 180515Z 17007KT 26/15 A2999 RMK A01 T02580148  RH  053%=      5-min Rain = 0
KOES 180520Z 16007KT 26/15 A2999 RMK A01 T02580149  RH  053%=      5-min Rain = 0
KOES 180525Z 16007KT 26/15 A2998 RMK A01 T02570149  RH  053%=      5-min Rain = 0
KOES 180530Z 16008KT 26/15 A2998 RMK A01 T02570149  RH  054%=      5-min Rain = 0
KOES 180535Z 16008KT 26/15 A2998 RMK A01 T02560149  RH  054%=      5-min Rain = 0
KOES 180540Z 15008KT 25/15 A2998 RMK A01 T02540149  RH  054%=      5-min Rain = 0
KOES 180545Z 16008KT 25/15 A2998 RMK A01 T02530149  RH  055%=      5-min Rain = 0
KOES 180550Z 16008KT 25/15 A2998 RMK A01 T02520150  RH  056%=      5-min Rain = 0
KOES 180555Z 16009KT 25/15 A2998 RMK A01 T02520151  RH  056%=      5-min Rain = 0
KOES 180600Z 16009KT 25/15 A2998 RMK A01 T02530151  RH  056%=      5-min Rain = 0
KOES 180605Z 16009KT 25/15 A2998 RMK A01 T02530151  RH  056%=      5-min Rain = 0
KOES 180610Z 16008KT 25/15 A2998 RMK A01 T02520151  RH  056%=      5-min Rain = 0
KOES 180615Z 16007KT 25/15 A2998 RMK A01 T02510151  RH  056%=      5-min Rain = 0
KOES 180620Z 17006KT 25/15 A2998 RMK A01 T02500152  RH  057%=      5-min Rain = 0
KOES 180625Z 17006KT 25/15 A2998 RMK A01 T02500153  RH  057%=      5-min Rain = 0
KOES 180630Z 17007KT 25/15 A2998 RMK A01 T02500153  RH  057%=      5-min Rain = 0
KOES 180635Z 17007KT 25/15 A2998 RMK A01 T02510154  RH  057%=      5-min Rain = 0
KOES 180640Z 17007KT 25/15 A2998 RMK A01 T02520154  RH  057%=      5-min Rain = 0
KOES 180645Z 17008KT 25/15 A2998 RMK A01 T02540153  RH  056%=      5-min Rain = 0
KOES 180650Z 16007G12KT 26/15 A2998 RMK A01 T02550152  RH  055%=      5-min Rain = 0
KOES 180655Z 16007KT 25/15 A2998 RMK A01 T02540152  RH  056%=      5-min Rain = 0
KOES 180700Z 16008KT 25/15 A2998 RMK A01 T02540151  RH  055%=      5-min Rain = 0
KOES 180705Z 17008KT 25/15 A2998 RMK A01 T02530151  RH  055%=      5-min Rain = 0
KOES 180710Z 17008KT 25/15 A2998 RMK A01 T02540150  RH  055%=      5-min Rain = 0
KOES 180715Z 16007KT 25/15 A2998 RMK A01 T02540149  RH  055%=      5-min Rain = 0
KOES 180720Z 17007G12KT 25/15 A2998 RMK A01 T02530148  RH  055%=      5-min Rain = 0
KOES 180725Z 17007KT 25/15 A2998 RMK A01 T02520148  RH  055%=      5-min Rain = 0
KOES 180730Z 17008KT 25/15 A2998 RMK A01 T02530147  RH  054%=      5-min Rain = 0
KOES 180735Z 16008KT 25/15 A2998 RMK A01 T02530147  RH  054%=      5-min Rain = 0
KOES 180740Z 16008KT 25/15 A2997 RMK A01 T02530146  RH  054%=      5-min Rain = 0
KOES 180745Z 16008KT 25/15 A2997 RMK A01 T02520146  RH  054%=      5-min Rain = 0
KOES 180750Z 17008KT 25/15 A2998 RMK A01 T02520145  RH  054%=      5-min Rain = 0
KOES 180755Z 17008KT 25/14 A2998 RMK A01 T02530144  RH  053%=      5-min Rain = 0
KOES 180800Z 17008KT 25/14 A2998 RMK A01 T02530143  RH  053%=      5-min Rain = 0
KOES 180805Z 17009KT 25/14 A2998 RMK A01 T02540142  RH  052%=      5-min Rain = 0
KOES 180810Z 17008KT 25/14 A2998 RMK A01 T02540141  RH  052%=      5-min Rain = 0
KOES 180815Z 16007KT 25/14 A2998 RMK A01 T02530142  RH  052%=      5-min Rain = 0
KOES 180820Z 16007KT 25/14 A2998 RMK A01 T02510142  RH  053%=      5-min Rain = 0
KOES 180825Z 16007KT 25/14 A2998 RMK A01 T02490144  RH  054%=      5-min Rain = 0
KOES 180830Z 16007G12KT 25/14 A2998 RMK A01 T02470144  RH  055%=      5-min Rain = 0
KOES 180835Z 16007KT 25/14 A2999 RMK A01 T02460144  RH  055%=      5-min Rain = 0
KOES 180840Z 16007KT 25/14 A2999 RMK A01 T02450144  RH  056%=      5-min Rain = 0
KOES 180845Z 16007KT 24/14 A2999 RMK A01 T02440143  RH  056%=      5-min Rain = 0
KOES 180850Z 16008KT 24/14 A2999 RMK A01 T02440143  RH  055%=      5-min Rain = 0
KOES 180855Z 16008G14KT 25/14 A2999 RMK A01 T02450142  RH  055%=      5-min Rain = 0
KOES 180900Z 17008KT 25/14 A2999 RMK A01 T02470141  RH  054%=      5-min Rain = 0
KOES 180905Z 17009G14KT 25/14 A2999 RMK A01 T02480140  RH  053%=      5-min Rain = 0
KOES 180910Z 17009KT 25/14 A2999 RMK A01 T02490140  RH  053%=      5-min Rain = 0
KOES 180915Z 17009KT 25/14 A2999 RMK A01 T02490140  RH  053%=      5-min Rain = 0
KOES 180920Z 17010KT 25/14 A2999 RMK A01 T02490141  RH  053%=      5-min Rain = 0
KOES 180925Z 17009KT 25/14 A2999 RMK A01 T02490142  RH  053%=      5-min Rain = 0
KOES 180930Z 17010G17KT 25/14 A2999 RMK A01 T02490143  RH  054%=      5-min Rain = 0
KOES 180935Z 17011KT 25/14 A2999 RMK A01 T02480143  RH  054%=      5-min Rain = 0
KOES 180940Z 17010G15KT 25/14 A2999 RMK A01 T02480144  RH  055%=      5-min Rain = 0
KOES 180945Z 17010KT 25/14 A2999 RMK A01 T02470144  RH  055%=      5-min Rain = 0
KOES 180950Z 17009KT 25/15 A2999 RMK A01 T02460145  RH  056%=      5-min Rain = 0
KOES 180955Z 17010G16KT 25/15 A2999 RMK A01 T02460145  RH  056%=      5-min Rain = 0
KOES 181000Z 17010KT 25/15 A2999 RMK A01 T02450146  RH  056%=      5-min Rain = 0
KOES 181005Z 17010KT 24/15 A30 RMK A01 T02440146  RH  057%=      5-min Rain = 0
KOES 181010Z 17010KT 24/15 A30 RMK A01 T02440147  RH  057%=      5-min Rain = 0
KOES 181015Z 17010KT 24/15 A30 RMK A01 T02440147  RH  057%=      5-min Rain = 0
KOES 181020Z 17010KT 24/15 A30 RMK A01 T02430147  RH  057%=      5-min Rain = 0
KOES 181025Z 17009G14KT 24/15 A30 RMK A01 T02430148  RH  058%=      5-min Rain = 0
KOES 181030Z 17010G15KT 24/15 A30 RMK A01 T02420148  RH  058%=      5-min Rain = 0
KOES 181035Z 17010KT 24/15 A30 RMK A01 T02420148  RH  058%=      5-min Rain = 0
KOES 181040Z 17011KT 24/15 A30 RMK A01 T02420148  RH  058%=      5-min Rain = 0
KOES 181045Z 17011KT 24/15 A30 RMK A01 T02420148  RH  058%=      5-min Rain = 0
KOES 181050Z 17011G16KT 24/15 A2999 RMK A01 T02420148  RH  058%=      5-min Rain = 0
KOES 181055Z 17010G15KT 24/15 A2999 RMK A01 T02410148  RH  059%=      5-min Rain = 0
KOES 181100Z 17010KT 24/15 A30 RMK A01 T02400148  RH  059%=      5-min Rain = 0
KOES 181105Z 17010G15KT 24/15 A30 RMK A01 T02400149  RH  059%=      5-min Rain = 0
KOES 181110Z 17010KT 24/15 A30 RMK A01 T02400148  RH  059%=      5-min Rain = 0
KOES 181115Z 17010G15KT 24/15 A30 RMK A01 T02400148  RH  059%=      5-min Rain = 0
KOES 181120Z 17010G15KT 24/15 A30 RMK A01 T02390148  RH  059%=      5-min Rain = 0
KOES 181125Z 17010G17KT 24/15 A30 RMK A01 T02390148  RH  059%=      5-min Rain = 0
KOES 181130Z 17010G15KT 24/15 A30 RMK A01 T02400148  RH  059%=      5-min Rain = 0
KOES 181135Z 17010G15KT 24/15 A30 RMK A01 T02400148  RH  059%=      5-min Rain = 0
KOES 181140Z 17009G14KT 24/15 A30 RMK A01 T02390148  RH  059%=      5-min Rain = 0
KOES 181145Z 17009KT 24/15 A30 RMK A01 T02380148  RH  060%=      5-min Rain = 0
KOES 181200Z 17010KT 24/15 A30 RMK A01 T02380148  RH  060%=      5-min Rain = 0
KOES 181205Z 17010KT 24/15 A2999 RMK A01 T02380148  RH  060%=      5-min Rain = 0
KOES 181210Z 17010G15KT 24/15 A2999 RMK A01 T02380148  RH  060%=      5-min Rain = 0
KOES 181215Z 17010G16KT 24/15 A2999 RMK A01 T02390148  RH  059%=      5-min Rain = 0
KOES 181220Z 17009KT 24/15 A2999 RMK A01 T02390149  RH  059%=      5-min Rain = 0
KOES 181225Z 17010G15KT 24/15 A2999 RMK A01 T02400149  RH  059%=      5-min Rain = 0
KOES 181230Z 17010KT 24/15 A2999 RMK A01 T02410149  RH  059%=      5-min Rain = 0
KOES 181235Z 17010KT 24/15 A2999 RMK A01 T02420150  RH  059%=      5-min Rain = 0
KOES 181240Z 17010G17KT 24/15 A2999 RMK A01 T02430150  RH  059%=      5-min Rain = 0
KOES 181245Z 17011KT 25/15 A2999 RMK A01 T02450150  RH  058%=      5-min Rain = 0
KOES 181250Z 17011G16KT 25/15 A2999 RMK A01 T02460151  RH  058%=      5-min Rain = 0
KOES 181255Z 18010G16KT 25/15 A30 RMK A01 T02470151  RH  058%=      5-min Rain = 0
KOES 181300Z 18010G16KT 25/15 A30 RMK A01 T02480152  RH  058%=      5-min Rain = 0
KOES 181305Z 18010G15KT 25/15 A30 RMK A01 T02500153  RH  057%=      5-min Rain = 0
KOES 181310Z 18011G19KT 25/15 A30 RMK A01 T02510154  RH  057%=      5-min Rain = 0
KOES 181315Z 18011KT 25/16 A30 RMK A01 T02530155  RH  057%=      5-min Rain = 0
KOES 181320Z 18013G18KT 25/16 A30 RMK A01 T02540155  RH  057%=      5-min Rain = 0
KOES 181325Z 18013G22KT 26/16 A30 RMK A01 T02560156  RH  057%=      5-min Rain = 0
KOES 181330Z 18014G19KT 26/16 A2999 RMK A01 T02570157  RH  056%=      5-min Rain = 0
KOES 181335Z 18014G21KT 26/16 A2999 RMK A01 T02580157  RH  056%=      5-min Rain = 0
KOES 181340Z 18014G20KT 26/16 A30 RMK A01 T02600158  RH  056%=      5-min Rain = 0
KOES 181345Z 18016G21KT 26/16 A30 RMK A01 T02600158  RH  056%=      5-min Rain = 0
KOES 181350Z 18017KT 26/16 A30 RMK A01 T02610158  RH  056%=      5-min Rain = 0
KOES 181355Z 18014G21KT 26/16 A30 RMK A01 T02620159  RH  056%=      5-min Rain = 0
KOES 181400Z 19013G19KT 27/16 A30 RMK A01 T02650160  RH  055%=      5-min Rain = 0
KOES 181405Z 19015G21KT 27/16 A30 RMK A01 T02670160  RH  054%=      5-min Rain = 0
KOES 181410Z 19013G21KT 27/16 A30 RMK A01 T02690160  RH  054%=      5-min Rain = 0
KOES 181415Z 18014G20KT 27/16 A30 RMK A01 T02720159  RH  053%=      5-min Rain = 0
KOES 181420Z 18014G20KT 27/16 A30 RMK A01 T02720159  RH  052%=      5-min Rain = 0
KOES 181425Z 18015G24KT 27/16 A2999 RMK A01 T02710158  RH  052%=      5-min Rain = 0
KOES 181430Z 18015G20KT 27/16 A2999 RMK A01 T02730159  RH  052%=      5-min Rain = 0
KOES 181435Z 18014G19KT 28/16 A30 RMK A01 T02760158  RH  051%=      5-min Rain = 0
KOES 181440Z 18013G20KT 28/16 A30 RMK A01 T02780159  RH  050%=      5-min Rain = 0
KOES 181445Z 18017G22KT 28/16 A30 RMK A01 T02810157  RH  049%=      5-min Rain = 0
KOES 181450Z 19015G21KT 28/16 A30 RMK A01 T02810158  RH  050%=      5-min Rain = 0
KOES 181455Z 18014KT 28/16 A30 RMK A01 T02840159  RH  049%=      5-min Rain = 0
KOES 181500Z 18014G21KT 29/16 A30 RMK A01 T02860159  RH  048%=      5-min Rain = 0
KOES 181505Z 18015G20KT 29/16 A2999 RMK A01 T02860158  RH  048%=      5-min Rain = 0
KOES 181510Z 19014G21KT 29/16 A2999 RMK A01 T02870158  RH  048%=      5-min Rain = 0
KOES 181515Z 18013G18KT 29/16 A2999 RMK A01 T02890158  RH  047%=      5-min Rain = 0
KOES 181520Z 18012G17KT 29/16 A2999 RMK A01 T02920159  RH  047%=      5-min Rain = 0
KOES 181525Z 17013G20KT 30/16 A2999 RMK A01 T02950158  RH  046%=      5-min Rain = 0
KOES 181530Z 18013G22KT 30/16 A2999 RMK A01 T02950157  RH  045%=      5-min Rain = 0
KOES 181535Z 18014G20KT 30/16 A2999 RMK A01 T02960156  RH  045%=      5-min Rain = 0
KOES 181540Z 19015G20KT 30/15 A2999 RMK A01 T02990154  RH  043%=      5-min Rain = 0
KOES 181545Z 17013G19KT 30/16 A2999 RMK A01 T03010156  RH  043%=      5-min Rain = 0
KOES 181550Z 18013G19KT 31/15 A2999 RMK A01 T03050154  RH  042%=      5-min Rain = 0
KOES 181555Z 19015G22KT 30/15 A2999 RMK A01 T03040153  RH  042%=      5-min Rain = 0
KOES 181600Z 18014G20KT 30/15 A2999 RMK A01 T03030154  RH  042%=      5-min Rain = 0
KOES 181605Z 17014G20KT 31/15 A2998 RMK A01 T03060153  RH  041%=      5-min Rain = 0
KOES 181610Z 18015KT 31/15 A2999 RMK A01 T03090152  RH  040%=      5-min Rain = 0
KOES 181615Z 19015G20KT 31/15 A2998 RMK A01 T03100150  RH  040%=      5-min Rain = 0
KOES 181620Z 19014G21KT 32/15 A2999 RMK A01 T03150147  RH  038%=      5-min Rain = 0
KOES 181625Z 20015G21KT 32/14 A2999 RMK A01 T03180142  RH  036%=      5-min Rain = 0
KOES 181630Z 20013KT 32/14 A2999 RMK A01 T03180144  RH  036%=      5-min Rain = 0
KOES 181635Z 19013G20KT 32/14 A2999 RMK A01 T03240137  RH  033%=      5-min Rain = 0
KOES 181640Z 19014G19KT 32/13 A2999 RMK A01 T03230132  RH  033%=      5-min Rain = 0
KOES 181645Z 20014G20KT 32/13 A2998 RMK A01 T03240131  RH  032%=      5-min Rain = 0
KOES 181650Z 20014G19KT 33/13 A2998 RMK A01 T03260131  RH  032%=      5-min Rain = 0
KOES 181655Z 20013G18KT 33/13 A2998 RMK A01 T03320132  RH  031%=      5-min Rain = 0
KOES 181700Z 20015G20KT 33/13 A2998 RMK A01 T03300130  RH  031%=      5-min Rain = 0
KOES 181705Z 20013G21KT 33/13 A2998 RMK A01 T03310131  RH  031%=      5-min Rain = 0
KOES 181710Z 20015G21KT 33/13 A2998 RMK A01 T03330131  RH  031%=      5-min Rain = 0
KOES 181715Z 19015KT 33/13 A2998 RMK A01 T03320129  RH  031%=      5-min Rain = 0
KOES 181720Z 19014G19KT 34/13 A2998 RMK A01 T03350131  RH  030%=      5-min Rain = 0
KOES 181725Z 20015G22KT 34/13 A2998 RMK A01 T03350131  RH  030%=      5-min Rain = 0
KOES 181730Z 20014G19KT 34/13 A2998 RMK A01 T03370131  RH  030%=      5-min Rain = 0
KOES 181735Z 19013G18KT 34/13 A2998 RMK A01 T03400130  RH  029%=      5-min Rain = 0
KOES 181740Z 19013G19KT 34/13 A2998 RMK A01 T03420129  RH  029%=      5-min Rain = 0
KOES 181745Z 18014G20KT 34/13 A2998 RMK A01 T03430131  RH  029%=      5-min Rain = 0
KOES 181750Z 18014KT 34/13 A2998 RMK A01 T03430130  RH  029%=      5-min Rain = 0
KOES 181755Z 19013G19KT 35/13 A2997 RMK A01 T03460132  RH  029%=      5-min Rain = 0
KOES 181800Z 19013G20KT 35/13 A2997 RMK A01 T03460129  RH  028%=      5-min Rain = 0
KOES 181805Z 20014G19KT 35/13 A2997 RMK A01 T03470128  RH  028%=      5-min Rain = 0
KOES 181810Z 19013KT 35/13 A2997 RMK A01 T03500128  RH  027%=      5-min Rain = 0
KOES 181815Z 19013G19KT 35/13 A2997 RMK A01 T03500127  RH  027%=      5-min Rain = 0
KOES 181820Z 18014G19KT 35/13 A2997 RMK A01 T03520125  RH  026%=      5-min Rain = 0
KOES 181825Z 19012G17KT 35/13 A2996 RMK A01 T03520125  RH  027%=      5-min Rain = 0
KOES 181830Z 19013G19KT 35/12 A2996 RMK A01 T03520124  RH  026%=      5-min Rain = 0
KOES 181835Z 19013G20KT 36/12 A2996 RMK A01 T03570123  RH  025%=      5-min Rain = 0
KOES 181840Z 19013KT 36/12 A2996 RMK A01 T03570120  RH  025%=      5-min Rain = 0
KOES 181845Z 20012G17KT 36/13 A2996 RMK A01 T03610126  RH  025%=      5-min Rain = 0
KOES 181850Z 20012G18KT 36/12 A2995 RMK A01 T03620119  RH  024%=      5-min Rain = 0
KOES 181855Z 20014G19KT 36/12 A2995 RMK A01 T03610123  RH  025%=      5-min Rain = 0
KOES 181900Z 21014G20KT 36/12 A2995 RMK A01 T03610121  RH  025%=      5-min Rain = 0
KOES 181905Z 20011G18KT 36/12 A2995 RMK A01 T03630118  RH  024%=      5-min Rain = 0
KOES 181910Z 20013KT 37/12 A2995 RMK A01 T03650120  RH  024%=      5-min Rain = 0
KOES 181915Z 20013KT 36/12 A2995 RMK A01 T03640122  RH  024%=      5-min Rain = 0
KOES 181920Z 20014G21KT 37/12 A2995 RMK A01 T03660119  RH  024%=      5-min Rain = 0
KOES 181925Z 20013G19KT 37/12 A2995 RMK A01 T03660121  RH  024%=      5-min Rain = 0
KOES 181930Z 19012G19KT 37/13 A2994 RMK A01 T03670125  RH  024%=      5-min Rain = 0
KOES 181935Z 18014G21KT 37/12 A2994 RMK A01 T03670121  RH  024%=      5-min Rain = 0
KOES 181940Z 18011G17KT 37/12 A2994 RMK A01 T03660119  RH  024%=      5-min Rain = 0
KOES 181945Z 18012G19KT 37/12 A2994 RMK A01 T03670122  RH  024%=      5-min Rain = 0
KOES 181950Z 20012G20KT 37/12 A2994 RMK A01 T03700120  RH  023%=      5-min Rain = 0
KOES 181955Z 19015G21KT 37/12 A2994 RMK A01 T03670124  RH  024%=      5-min Rain = 0
KOES 182000Z 19014G25KT 37/12 A2994 RMK A01 T03680124  RH  024%=      5-min Rain = 0
KOES 182005Z 18013G20KT 37/12 A2994 RMK A01 T03670122  RH  024%=      5-min Rain = 0
KOES 182010Z 18014G22KT 37/12 A2994 RMK A01 T03690122  RH  024%=      5-min Rain = 0
KOES 182015Z 18013G20KT 37/12 A2994 RMK A01 T03670120  RH  024%=      5-min Rain = 0
KOES 182020Z 18014G22KT 37/12 A2994 RMK A01 T03650119  RH  024%=      5-min Rain = 0
KOES 182025Z 19012G18KT 37/12 A2993 RMK A01 T03650122  RH  024%=      5-min Rain = 0
KOES 182030Z 19012G17KT 37/12 A2994 RMK A01 T03700120  RH  023%=      5-min Rain = 0
KOES 182035Z 16010G16KT 37/12 A2993 RMK A01 T03700117  RH  023%=      5-min Rain = 0
KOES 182040Z 18013G18KT 37/11 A2993 RMK A01 T03710114  RH  022%=      5-min Rain = 0
KOES 182045Z 18011G17KT 37/12 A2993 RMK A01 T03700115  RH  022%=      5-min Rain = 0
KOES 182050Z 20013G21KT 37/12 A2993 RMK A01 T03700117  RH  023%=      5-min Rain = 0
KOES 182055Z 19013G21KT 37/12 A2993 RMK A01 T03680115  RH  023%=      5-min Rain = 0
KOES 182100Z 17012G18KT 37/12 A2993 RMK A01 T03700116  RH  023%=      5-min Rain = 0
KOES 182105Z 17012KT 37/12 A2992 RMK A01 T03710120  RH  023%=      5-min Rain = 0
KOES 182110Z 20012G19KT 37/12 A2992 RMK A01 T03710118  RH  023%=      5-min Rain = 0
KOES 182115Z 15013G20KT 37/12 A2992 RMK A01 T03700116  RH  023%=      5-min Rain = 0
KOES 182120Z 18014G19KT 37/11 A2992 RMK A01 T03680114  RH  023%=      5-min Rain = 0
KOES 182125Z 18013G20KT 37/11 A2992 RMK A01 T03720113  RH  022%=      5-min Rain = 0
KOES 182130Z 18013G18KT 37/11 A2991 RMK A01 T03720111  RH  022%=      5-min Rain = 0
KOES 182135Z 16014KT 37/11 A2991 RMK A01 T03700109  RH  021%=      5-min Rain = 0
KOES 182140Z 18014G21KT 37/11 A2991 RMK A01 T03680110  RH  022%=      5-min Rain = 0
KOES 182145Z 17013G20KT 37/11 A2991 RMK A01 T03700108  RH  021%=      5-min Rain = 0
KOES 182150Z 19011G18KT 37/11 A299 RMK A01 T03720110  RH  021%=      5-min Rain = 0
KOES 182155Z 19014G19KT 37/11 A299 RMK A01 T03720107  RH  021%=      5-min Rain = 0
KOES 182200Z 19014G22KT 37/11 A299 RMK A01 T03730106  RH  021%=      5-min Rain = 0
KOES 182205Z 18012G18KT 37/10 A299 RMK A01 T03710104  RH  021%=      5-min Rain = 0
KOES 182210Z 17013G19KT 37/11 A2989 RMK A01 T03720106  RH  021%=      5-min Rain = 0
KOES 182215Z 18013KT 37/10 A2989 RMK A01 T03720101  RH  020%=      5-min Rain = 0
KOES 182220Z 18013G21KT 37/11 A2989 RMK A01 T03730105  RH  021%=      5-min Rain = 0
KOES 182225Z 18015G20KT 37/10 A2989 RMK A01 T03730102  RH  020%=      5-min Rain = 0
KOES 182230Z 19013G19KT 37/10 A2989 RMK A01 T03730104  RH  020%=      5-min Rain = 0
KOES 182235Z 19013G21KT 37/10 A2989 RMK A01 T03740102  RH  020%=      5-min Rain = 0
KOES 182240Z 20011G17KT 37/10 A2989 RMK A01 T03730103  RH  020%=      5-min Rain = 0
KOES 182245Z 19013G18KT 37/10 A2989 RMK A01 T03740101  RH  020%=      5-min Rain = 0
KOES 182250Z 19012G19KT 37/10 A2988 RMK A01 T03720100  RH  020%=      5-min Rain = 0
KOES 182255Z 18010KT 37/10 A2988 RMK A01 T03740098  RH  020%=      5-min Rain = 0
KOES 182300Z 19012G18KT 37/10 A2988 RMK A01 T03710100  RH  020%=      5-min Rain = 0
KOES 182305Z 18011G18KT 37/10 A2988 RMK A01 T03710099  RH  020%=      5-min Rain = 0
KOES 182310Z 17009G15KT 37/10 A2988 RMK A01 T03720099  RH  020%=      5-min Rain = 0
KOES 182315Z 18014G20KT 37/10 A2988 RMK A01 T03690097  RH  020%=      5-min Rain = 0
KOES 182320Z 17011KT 37/10 A2988 RMK A01 T03680098  RH  020%=      5-min Rain = 0
KOES 182325Z 18014KT 37/10 A2988 RMK A01 T03680097  RH  020%=      5-min Rain = 0
KOES 182330Z 19013G18KT 37/10 A2988 RMK A01 T03670095  RH  020%=      5-min Rain = 0
KOES 182335Z 18011G17KT 37/09 A2988 RMK A01 T03650091  RH  019%=      5-min Rain = 0
KOES 182340Z 19014KT 37/10 A2987 RMK A01 T03650097  RH  020%=      5-min Rain = 0
KOES 182345Z 19011KT 37/10 A2987 RMK A01 T03650096  RH  020%=      5-min Rain = 0
KOES 182350Z 17009G15KT 37/09 A2987 RMK A01 T03660094  RH  020%=      5-min Rain = 0
KOES 182355Z 19013KT 37/10 A2987 RMK A01 T03650097  RH  020%=      5-min Rain = 0
KOES 190000Z 19011G16KT 36/10 A2987 RMK A01 T03630098  RH  021%=      5-min Rain = 0
KOES 190005Z 18012KT 36/10 A2987 RMK A01 T03630097  RH  020%=      5-min Rain = 0
KOES 190010Z 19012KT 36/10 A2987 RMK A01 T03600097  RH  021%=      5-min Rain = 0
KOES 190015Z 18014G19KT 36/10 A2987 RMK A01 T03600099  RH  021%=      5-min Rain = 0
KOES 190020Z 17012G17KT 36/10 A2988 RMK A01 T03580099  RH  021%=      5-min Rain = 0
KOES 190025Z 18011G16KT 36/10 A2988 RMK A01 T03580099  RH  021%=      5-min Rain = 0
KOES 190030Z 18013KT 36/10 A2988 RMK A01 T03570098  RH  021%=      5-min Rain = 0
KOES 190035Z 19012G18KT 36/10 A2988 RMK A01 T03560099  RH  022%=      5-min Rain = 0
KOES 190040Z 17012G17KT 36/10 A2988 RMK A01 T03560099  RH  022%=      5-min Rain = 0
KOES 190045Z 17012KT 36/10 A2988 RMK A01 T03550098  RH  022%=      5-min Rain = 0
KOES 190050Z 17010G16KT 35/10 A2988 RMK A01 T03540097  RH  022%=      5-min Rain = 0
KOES 190055Z 19013G19KT 35/10 A2988 RMK A01 T03530097  RH  022%=      5-min Rain = 0
KOES 190100Z 18013G18KT 35/10 A2988 RMK A01 T03510097  RH  022%=      5-min Rain = 0
KOES 190105Z 17011KT 35/10 A2988 RMK A01 T03510097  RH  022%=      5-min Rain = 0
KOES 190110Z 17010G16KT 35/10 A2988 RMK A01 T03490097  RH  022%=      5-min Rain = 0
KOES 190115Z 17010G15KT 35/10 A2988 RMK A01 T03480098  RH  023%=      5-min Rain = 0
KOES 190120Z 17010G15KT 35/10 A2988 RMK A01 T03460100  RH  023%=      5-min Rain = 0
KOES 190125Z 17009G14KT 34/10 A2988 RMK A01 T03440101  RH  023%=      5-min Rain = 0
KOES 190130Z 17011G16KT 34/10 A2988 RMK A01 T03430101  RH  024%=      5-min Rain = 0
KOES 190135Z 17011G16KT 34/10 A2988 RMK A01 T03410102  RH  024%=      5-min Rain = 0
KOES 190140Z 17010G17KT 34/10 A2988 RMK A01 T03390102  RH  024%=      5-min Rain = 0
KOES 190145Z 17011G18KT 34/10 A2988 RMK A01 T03370103  RH  025%=      5-min Rain = 0
KOES 190150Z 17010G15KT 34/10 A2989 RMK A01 T03360103  RH  025%=      5-min Rain = 0
KOES 190155Z 17008KT 33/10 A2989 RMK A01 T03340103  RH  025%=      5-min Rain = 0
KOES 190200Z 17008KT 33/10 A2989 RMK A01 T03310104  RH  026%=      5-min Rain = 0
KOES 190205Z 16009KT 33/10 A2989 RMK A01 T03290104  RH  026%=      5-min Rain = 0
KOES 190210Z 17008KT 33/10 A2989 RMK A01 T03280103  RH  026%=      5-min Rain = 0
KOES 190215Z 17008G14KT 33/10 A2989 RMK A01 T03270103  RH  026%=      5-min Rain = 0
KOES 190220Z 17009G14KT 33/10 A2989 RMK A01 T03260103  RH  026%=      5-min Rain = 0
KOES 190225Z 16009KT 33/10 A2989 RMK A01 T03250103  RH  027%=      5-min Rain = 0
KOES 190230Z 16009KT 32/11 A2989 RMK A01 T03230107  RH  027%=      5-min Rain = 0
KOES 190235Z 16008KT 32/11 A2989 RMK A01 T03210111  RH  029%=      5-min Rain = 0
KOES 190240Z 16009KT 32/11 A2989 RMK A01 T03190114  RH  029%=      5-min Rain = 0
KOES 190245Z 16008KT 32/12 A2989 RMK A01 T03180116  RH  030%=      5-min Rain = 0
KOES 190250Z 16010G15KT 32/12 A299 RMK A01 T03170118  RH  031%=      5-min Rain = 0
KOES 190255Z 17011G17KT 32/12 A299 RMK A01 T03170119  RH  031%=      5-min Rain = 0
KOES 190300Z 17011G16KT 32/12 A299 RMK A01 T03170120  RH  031%=      5-min Rain = 0
KOES 190305Z 17011G16KT 32/12 A299 RMK A01 T03160121  RH  032%=      5-min Rain = 0
KOES 190310Z 17011KT 31/12 A299 RMK A01 T03140122  RH  032%=      5-min Rain = 0
KOES 190315Z 16010KT 31/12 A299 RMK A01 T03130123  RH  032%=      5-min Rain = 0
KOES 190320Z 17010G15KT 31/12 A2991 RMK A01 T03120123  RH  033%=      5-min Rain = 0
KOES 190325Z 17010KT 31/12 A2991 RMK A01 T03110124  RH  033%=      5-min Rain = 0
KOES 190330Z 17011G16KT 31/13 A2991 RMK A01 T03100125  RH  033%=      5-min Rain = 0
KOES 190335Z 17011G16KT 31/13 A2991 RMK A01 T03100125  RH  033%=      5-min Rain = 0
KOES 190340Z 17012G17KT 31/12 A2991 RMK A01 T03090124  RH  033%=      5-min Rain = 0
KOES 190345Z 17012G17KT 31/12 A2992 RMK A01 T03090124  RH  033%=      5-min Rain = 0
KOES 190350Z 17012KT 31/12 A2992 RMK A01 T03080124  RH  034%=      5-min Rain = 0
KOES 190355Z 17012G18KT 31/12 A2992 RMK A01 T03080124  RH  034%=      5-min Rain = 0
KOES 190400Z 17011KT 31/12 A2992 RMK A01 T03060124  RH  034%=      5-min Rain = 0
KOES 190405Z 17013G18KT 31/13 A2992 RMK A01 T03060125  RH  034%=      5-min Rain = 0
KOES 190410Z 17011G16KT 31/13 A2992 RMK A01 T03050125  RH  035%=      5-min Rain = 0
KOES 190415Z 17011G17KT 30/13 A2992 RMK A01 T03040125  RH  035%=      5-min Rain = 0
KOES 190420Z 17012KT 30/13 A2992 RMK A01 T03030126  RH  035%=      5-min Rain = 0
KOES 190425Z 17012KT 30/13 A2993 RMK A01 T03020126  RH  035%=      5-min Rain = 0
KOES 190430Z 17012G17KT 30/13 A2993 RMK A01 T03020127  RH  036%=      5-min Rain = 0
KOES 190435Z 17013G18KT 30/13 A2993 RMK A01 T03010128  RH  036%=      5-min Rain = 0
KOES 190440Z 17012G18KT 30/13 A2993 RMK A01 T03000129  RH  036%=      5-min Rain = 0
KOES 190445Z 17012G18KT 30/13 A2993 RMK A01 T02990129  RH  037%=      5-min Rain = 0
KOES 190450Z 17012G18KT 30/13 A2994 RMK A01 T02980129  RH  037%=      5-min Rain = 0
KOES 190455Z 17011G16KT 30/13 A2994 RMK A01 T02970130  RH  037%=      5-min Rain = 0

Page generated in 0.0156 seconds.